sensor_id;sensor_type;location;lat;lon;timestamp;P1;durP1;ratioP1;P2;durP2;ratioP2
27670;SDS011;15077;49.704;9.908;2023-05-02T00:00:20;3.65;;;3.13;;
27670;SDS011;15077;49.704;9.908;2023-05-02T00:02:51;3.80;;;3.10;;
27670;SDS011;15077;49.704;9.908;2023-05-02T00:05:17;3.95;;;3.00;;
27670;SDS011;15077;49.704;9.908;2023-05-02T00:07:43;5.38;;;4.00;;
27670;SDS011;15077;49.704;9.908;2023-05-02T00:10:12;4.97;;;3.38;;
27670;SDS011;15077;49.704;9.908;2023-05-02T00:12:40;4.85;;;3.92;;
27670;SDS011;15077;49.704;9.908;2023-05-02T00:15:05;4.50;;;3.35;;
27670;SDS011;15077;49.704;9.908;2023-05-02T00:17:32;4.05;;;3.65;;
27670;SDS011;15077;49.704;9.908;2023-05-02T00:19:58;4.63;;;4.13;;
27670;SDS011;15077;49.704;9.908;2023-05-02T00:22:24;4.63;;;3.65;;
27670;SDS011;15077;49.704;9.908;2023-05-02T00:24:55;5.55;;;3.78;;
27670;SDS011;15077;49.704;9.908;2023-05-02T00:27:22;4.10;;;3.38;;
27670;SDS011;15077;49.704;9.908;2023-05-02T00:29:52;3.97;;;3.05;;
27670;SDS011;15077;49.704;9.908;2023-05-02T00:32:18;3.50;;;3.20;;
27670;SDS011;15077;49.704;9.908;2023-05-02T00:34:46;4.65;;;3.28;;
27670;SDS011;15077;49.704;9.908;2023-05-02T00:37:11;3.50;;;2.88;;
27670;SDS011;15077;49.704;9.908;2023-05-02T00:39:37;4.13;;;3.05;;
27670;SDS011;15077;49.704;9.908;2023-05-02T00:42:03;4.10;;;3.30;;
27670;SDS011;15077;49.704;9.908;2023-05-02T00:44:30;4.75;;;3.67;;
27670;SDS011;15077;49.704;9.908;2023-05-02T00:46:56;3.95;;;3.40;;
27670;SDS011;15077;49.704;9.908;2023-05-02T00:49:25;4.45;;;3.38;;
27670;SDS011;15077;49.704;9.908;2023-05-02T00:51:52;3.13;;;2.72;;
27670;SDS011;15077;49.704;9.908;2023-05-02T00:54:19;2.88;;;2.30;;
27670;SDS011;15077;49.704;9.908;2023-05-02T00:56:44;3.70;;;2.85;;
27670;SDS011;15077;49.704;9.908;2023-05-02T00:59:11;3.70;;;2.65;;
27670;SDS011;15077;49.704;9.908;2023-05-02T01:05:08;4.40;;;3.05;;
27670;SDS011;15077;49.704;9.908;2023-05-02T01:08:28;4.03;;;2.95;;
27670;SDS011;15077;49.704;9.908;2023-05-02T01:13:41;3.65;;;2.42;;
27670;SDS011;15077;49.704;9.908;2023-05-02T01:16:11;4.10;;;3.65;;
27670;SDS011;15077;49.704;9.908;2023-05-02T01:18:41;4.57;;;4.07;;
27670;SDS011;15077;49.704;9.908;2023-05-02T01:21:09;5.50;;;3.58;;
27670;SDS011;15077;49.704;9.908;2023-05-02T01:26:53;4.35;;;3.90;;
27670;SDS011;15077;49.704;9.908;2023-05-02T01:29:37;4.40;;;3.55;;
27670;SDS011;15077;49.704;9.908;2023-05-02T01:32:06;5.30;;;4.20;;
27670;SDS011;15077;49.704;9.908;2023-05-02T01:34:34;5.38;;;4.20;;
27670;SDS011;15077;49.704;9.908;2023-05-02T01:37:05;4.47;;;3.80;;
27670;SDS011;15077;49.704;9.908;2023-05-02T01:39:34;5.25;;;4.20;;
27670;SDS011;15077;49.704;9.908;2023-05-02T01:42:05;5.18;;;4.68;;
27670;SDS011;15077;49.704;9.908;2023-05-02T01:44:31;5.65;;;4.68;;
27670;SDS011;15077;49.704;9.908;2023-05-02T01:47:01;4.88;;;4.38;;
27670;SDS011;15077;49.704;9.908;2023-05-02T01:49:32;6.25;;;5.28;;
27670;SDS011;15077;49.704;9.908;2023-05-02T01:52:06;7.10;;;5.07;;
27670;SDS011;15077;49.704;9.908;2023-05-02T01:54:37;5.13;;;4.13;;
27670;SDS011;15077;49.704;9.908;2023-05-02T01:57:07;6.22;;;4.90;;
27670;SDS011;15077;49.704;9.908;2023-05-02T01:59:40;5.65;;;4.90;;
27670;SDS011;15077;49.704;9.908;2023-05-02T02:02:13;5.10;;;4.40;;
27670;SDS011;15077;49.704;9.908;2023-05-02T02:04:41;4.60;;;3.42;;
27670;SDS011;15077;49.704;9.908;2023-05-02T02:07:12;5.18;;;4.18;;
27670;SDS011;15077;49.704;9.908;2023-05-02T02:09:40;4.05;;;3.65;;
27670;SDS011;15077;49.704;9.908;2023-05-02T02:12:09;4.85;;;3.60;;
27670;SDS011;15077;49.704;9.908;2023-05-02T02:18:17;3.80;;;3.15;;
27670;SDS011;15077;49.704;9.908;2023-05-02T02:20:50;5.20;;;4.38;;
27670;SDS011;15077;49.704;9.908;2023-05-02T02:23:20;4.28;;;3.47;;
27670;SDS011;15077;49.704;9.908;2023-05-02T02:25:52;5.97;;;3.85;;
27670;SDS011;15077;49.704;9.908;2023-05-02T02:28:21;6.40;;;3.92;;
27670;SDS011;15077;49.704;9.908;2023-05-02T02:30:47;4.93;;;3.67;;
27670;SDS011;15077;49.704;9.908;2023-05-02T02:33:15;4.07;;;3.63;;
27670;SDS011;15077;49.704;9.908;2023-05-02T02:35:43;5.95;;;5.25;;
27670;SDS011;15077;49.704;9.908;2023-05-02T02:38:25;5.07;;;4.30;;
27670;SDS011;15077;49.704;9.908;2023-05-02T02:44:15;5.38;;;4.47;;
27670;SDS011;15077;49.704;9.908;2023-05-02T02:47:10;4.55;;;3.75;;
27670;SDS011;15077;49.704;9.908;2023-05-02T02:55:44;4.70;;;3.58;;
27670;SDS011;15077;49.704;9.908;2023-05-02T02:58:38;4.50;;;3.75;;
27670;SDS011;15077;49.704;9.908;2023-05-02T03:01:23;4.38;;;3.58;;
27670;SDS011;15077;49.704;9.908;2023-05-02T03:03:52;4.25;;;3.72;;
27670;SDS011;15077;49.704;9.908;2023-05-02T03:06:23;3.40;;;2.85;;
27670;SDS011;15077;49.704;9.908;2023-05-02T03:08:51;5.00;;;3.55;;
27670;SDS011;15077;49.704;9.908;2023-05-02T03:11:17;5.85;;;4.05;;
27670;SDS011;15077;49.704;9.908;2023-05-02T03:13:45;6.45;;;4.15;;
27670;SDS011;15077;49.704;9.908;2023-05-02T03:18:52;4.28;;;3.80;;
27670;SDS011;15077;49.704;9.908;2023-05-02T03:21:17;4.18;;;3.63;;
27670;SDS011;15077;49.704;9.908;2023-05-02T03:23:43;3.53;;;3.10;;
27670;SDS011;15077;49.704;9.908;2023-05-02T03:26:09;3.60;;;2.90;;
27670;SDS011;15077;49.704;9.908;2023-05-02T03:28:35;4.60;;;3.33;;
27670;SDS011;15077;49.704;9.908;2023-05-02T03:31:01;3.58;;;3.03;;
27670;SDS011;15077;49.704;9.908;2023-05-02T03:33:29;5.50;;;3.70;;
27670;SDS011;15077;49.704;9.908;2023-05-02T03:35:57;8.48;;;5.30;;
27670;SDS011;15077;49.704;9.908;2023-05-02T03:38:25;7.95;;;5.10;;
27670;SDS011;15077;49.704;9.908;2023-05-02T03:40:57;7.45;;;4.97;;
27670;SDS011;15077;49.704;9.908;2023-05-02T03:43:24;6.43;;;5.07;;
27670;SDS011;15077;49.704;9.908;2023-05-02T03:45:51;5.75;;;4.65;;
27670;SDS011;15077;49.704;9.908;2023-05-02T03:48:17;5.18;;;4.45;;
27670;SDS011;15077;49.704;9.908;2023-05-02T03:50:43;4.38;;;3.38;;
27670;SDS011;15077;49.704;9.908;2023-05-02T03:53:10;5.95;;;4.22;;
27670;SDS011;15077;49.704;9.908;2023-05-02T03:55:38;6.20;;;4.57;;
27670;SDS011;15077;49.704;9.908;2023-05-02T03:58:06;6.07;;;4.03;;
27670;SDS011;15077;49.704;9.908;2023-05-02T04:00:35;6.88;;;4.53;;
27670;SDS011;15077;49.704;9.908;2023-05-02T04:03:03;10.20;;;6.22;;
27670;SDS011;15077;49.704;9.908;2023-05-02T04:05:29;8.90;;;5.65;;
27670;SDS011;15077;49.704;9.908;2023-05-02T04:07:55;7.38;;;5.30;;
27670;SDS011;15077;49.704;9.908;2023-05-02T04:10:21;8.98;;;6.70;;
27670;SDS011;15077;49.704;9.908;2023-05-02T04:12:47;9.45;;;6.28;;
27670;SDS011;15077;49.704;9.908;2023-05-02T04:15:13;6.35;;;4.57;;
27670;SDS011;15077;49.704;9.908;2023-05-02T04:17:39;5.80;;;3.67;;
27670;SDS011;15077;49.704;9.908;2023-05-02T04:20:05;5.68;;;4.55;;
27670;SDS011;15077;49.704;9.908;2023-05-02T04:22:32;4.88;;;4.20;;
27670;SDS011;15077;49.704;9.908;2023-05-02T04:24:58;6.75;;;4.50;;
27670;SDS011;15077;49.704;9.908;2023-05-02T04:27:24;5.05;;;4.55;;
27670;SDS011;15077;49.704;9.908;2023-05-02T04:29:50;5.00;;;3.90;;
27670;SDS011;15077;49.704;9.908;2023-05-02T04:32:17;5.00;;;4.50;;
27670;SDS011;15077;49.704;9.908;2023-05-02T04:34:43;5.65;;;4.25;;
27670;SDS011;15077;49.704;9.908;2023-05-02T04:37:08;5.05;;;3.70;;
27670;SDS011;15077;49.704;9.908;2023-05-02T04:39:34;4.53;;;3.22;;
27670;SDS011;15077;49.704;9.908;2023-05-02T04:42:00;4.55;;;3.90;;
27670;SDS011;15077;49.704;9.908;2023-05-02T04:44:26;3.88;;;3.10;;
27670;SDS011;15077;49.704;9.908;2023-05-02T04:46:52;4.38;;;3.00;;
27670;SDS011;15077;49.704;9.908;2023-05-02T04:49:18;4.07;;;3.00;;
27670;SDS011;15077;49.704;9.908;2023-05-02T04:51:43;4.38;;;3.65;;
27670;SDS011;15077;49.704;9.908;2023-05-02T04:54:09;5.07;;;3.55;;
27670;SDS011;15077;49.704;9.908;2023-05-02T04:56:36;5.80;;;4.45;;
27670;SDS011;15077;49.704;9.908;2023-05-02T04:59:02;5.75;;;4.63;;
27670;SDS011;15077;49.704;9.908;2023-05-02T05:01:28;8.98;;;5.60;;
27670;SDS011;15077;49.704;9.908;2023-05-02T05:03:54;7.72;;;5.70;;
27670;SDS011;15077;49.704;9.908;2023-05-02T05:06:20;10.82;;;6.13;;
27670;SDS011;15077;49.704;9.908;2023-05-02T05:08:47;7.32;;;5.30;;
27670;SDS011;15077;49.704;9.908;2023-05-02T05:11:13;7.22;;;5.88;;
27670;SDS011;15077;49.704;9.908;2023-05-02T05:13:42;8.77;;;5.85;;
27670;SDS011;15077;49.704;9.908;2023-05-02T05:16:08;8.32;;;6.80;;
27670;SDS011;15077;49.704;9.908;2023-05-02T05:18:33;7.95;;;5.78;;
27670;SDS011;15077;49.704;9.908;2023-05-02T05:21:05;8.48;;;6.05;;
27670;SDS011;15077;49.704;9.908;2023-05-02T05:23:33;9.10;;;6.47;;
27670;SDS011;15077;49.704;9.908;2023-05-02T05:26:11;9.52;;;7.10;;
27670;SDS011;15077;49.704;9.908;2023-05-02T05:28:41;12.32;;;8.25;;
27670;SDS011;15077;49.704;9.908;2023-05-02T05:31:08;10.95;;;7.78;;
27670;SDS011;15077;49.704;9.908;2023-05-02T05:33:36;11.13;;;8.50;;
27670;SDS011;15077;49.704;9.908;2023-05-02T05:36:07;12.23;;;8.48;;
27670;SDS011;15077;49.704;9.908;2023-05-02T05:38:35;10.83;;;8.40;;
27670;SDS011;15077;49.704;9.908;2023-05-02T05:41:01;10.65;;;7.47;;
27670;SDS011;15077;49.704;9.908;2023-05-02T05:43:29;9.30;;;7.70;;
27670;SDS011;15077;49.704;9.908;2023-05-02T05:45:55;8.88;;;7.95;;
27670;SDS011;15077;49.704;9.908;2023-05-02T05:48:21;10.07;;;7.72;;
27670;SDS011;15077;49.704;9.908;2023-05-02T05:50:47;8.68;;;6.63;;
27670;SDS011;15077;49.704;9.908;2023-05-02T05:53:13;9.05;;;7.00;;
27670;SDS011;15077;49.704;9.908;2023-05-02T05:55:39;9.05;;;7.40;;
27670;SDS011;15077;49.704;9.908;2023-05-02T05:58:06;9.35;;;6.28;;
27670;SDS011;15077;49.704;9.908;2023-05-02T06:00:33;9.05;;;7.05;;
27670;SDS011;15077;49.704;9.908;2023-05-02T06:03:00;10.93;;;7.47;;
27670;SDS011;15077;49.704;9.908;2023-05-02T06:05:25;9.15;;;7.18;;
27670;SDS011;15077;49.704;9.908;2023-05-02T06:07:52;9.55;;;7.80;;
27670;SDS011;15077;49.704;9.908;2023-05-02T06:10:17;8.75;;;7.30;;
27670;SDS011;15077;49.704;9.908;2023-05-02T06:12:43;8.23;;;7.10;;
27670;SDS011;15077;49.704;9.908;2023-05-02T06:15:09;10.48;;;8.13;;
27670;SDS011;15077;49.704;9.908;2023-05-02T06:17:35;8.48;;;7.28;;
27670;SDS011;15077;49.704;9.908;2023-05-02T06:20:00;7.95;;;6.60;;
27670;SDS011;15077;49.704;9.908;2023-05-02T06:22:26;11.30;;;8.07;;
27670;SDS011;15077;49.704;9.908;2023-05-02T06:24:52;7.63;;;6.53;;
27670;SDS011;15077;49.704;9.908;2023-05-02T06:27:17;8.80;;;6.80;;
27670;SDS011;15077;49.704;9.908;2023-05-02T06:29:43;8.30;;;6.53;;
27670;SDS011;15077;49.704;9.908;2023-05-02T06:32:09;11.35;;;8.32;;
27670;SDS011;15077;49.704;9.908;2023-05-02T06:34:35;9.05;;;6.55;;
27670;SDS011;15077;49.704;9.908;2023-05-02T06:37:00;7.72;;;6.30;;
27670;SDS011;15077;49.704;9.908;2023-05-02T06:39:26;8.77;;;6.85;;
27670;SDS011;15077;49.704;9.908;2023-05-02T06:41:55;7.22;;;5.72;;
27670;SDS011;15077;49.704;9.908;2023-05-02T06:44:22;9.63;;;7.00;;
27670;SDS011;15077;49.704;9.908;2023-05-02T06:46:48;9.73;;;7.85;;
27670;SDS011;15077;49.704;9.908;2023-05-02T06:49:14;8.43;;;7.07;;
27670;SDS011;15077;49.704;9.908;2023-05-02T06:51:40;8.77;;;6.53;;
27670;SDS011;15077;49.704;9.908;2023-05-02T06:54:07;9.10;;;7.00;;
27670;SDS011;15077;49.704;9.908;2023-05-02T06:56:33;9.00;;;7.50;;
27670;SDS011;15077;49.704;9.908;2023-05-02T06:59:00;9.68;;;8.15;;
27670;SDS011;15077;49.704;9.908;2023-05-02T07:01:26;12.35;;;7.75;;
27670;SDS011;15077;49.704;9.908;2023-05-02T07:03:52;11.93;;;8.90;;
27670;SDS011;15077;49.704;9.908;2023-05-02T07:06:18;10.82;;;9.45;;
27670;SDS011;15077;49.704;9.908;2023-05-02T07:08:45;10.60;;;8.98;;
27670;SDS011;15077;49.704;9.908;2023-05-02T07:11:11;11.15;;;8.85;;
27670;SDS011;15077;49.704;9.908;2023-05-02T07:13:36;10.32;;;7.60;;
27670;SDS011;15077;49.704;9.908;2023-05-02T07:16:02;8.95;;;7.05;;
27670;SDS011;15077;49.704;9.908;2023-05-02T07:18:28;11.05;;;8.80;;
27670;SDS011;15077;49.704;9.908;2023-05-02T07:20:54;11.85;;;9.38;;
27670;SDS011;15077;49.704;9.908;2023-05-02T07:23:20;10.68;;;7.95;;
27670;SDS011;15077;49.704;9.908;2023-05-02T07:25:49;10.43;;;8.27;;
27670;SDS011;15077;49.704;9.908;2023-05-02T07:28:14;10.30;;;7.65;;
27670;SDS011;15077;49.704;9.908;2023-05-02T07:30:40;10.82;;;8.75;;
27670;SDS011;15077;49.704;9.908;2023-05-02T07:33:06;10.88;;;7.78;;
27670;SDS011;15077;49.704;9.908;2023-05-02T07:35:32;11.57;;;8.48;;
27670;SDS011;15077;49.704;9.908;2023-05-02T07:37:57;10.70;;;8.23;;
27670;SDS011;15077;49.704;9.908;2023-05-02T07:40:23;9.77;;;7.25;;
27670;SDS011;15077;49.704;9.908;2023-05-02T07:42:49;8.63;;;6.60;;
27670;SDS011;15077;49.704;9.908;2023-05-02T07:45:15;9.45;;;6.72;;
27670;SDS011;15077;49.704;9.908;2023-05-02T07:47:41;11.68;;;8.10;;
27670;SDS011;15077;49.704;9.908;2023-05-02T07:50:07;11.23;;;8.23;;
27670;SDS011;15077;49.704;9.908;2023-05-02T07:52:33;11.10;;;9.00;;
27670;SDS011;15077;49.704;9.908;2023-05-02T07:54:59;12.20;;;8.23;;
27670;SDS011;15077;49.704;9.908;2023-05-02T07:57:25;8.50;;;7.00;;
27670;SDS011;15077;49.704;9.908;2023-05-02T07:59:51;8.27;;;6.50;;
27670;SDS011;15077;49.704;9.908;2023-05-02T08:02:17;9.77;;;7.30;;
27670;SDS011;15077;49.704;9.908;2023-05-02T08:04:44;8.27;;;7.18;;
27670;SDS011;15077;49.704;9.908;2023-05-02T08:07:11;8.18;;;6.20;;
27670;SDS011;15077;49.704;9.908;2023-05-02T08:09:37;10.85;;;6.82;;
27670;SDS011;15077;49.704;9.908;2023-05-02T08:12:03;8.88;;;6.95;;
27670;SDS011;15077;49.704;9.908;2023-05-02T08:14:29;11.45;;;7.65;;
27670;SDS011;15077;49.704;9.908;2023-05-02T08:16:55;11.90;;;8.45;;
27670;SDS011;15077;49.704;9.908;2023-05-02T08:19:22;8.98;;;6.82;;
27670;SDS011;15077;49.704;9.908;2023-05-02T08:21:48;16.35;;;7.32;;
27670;SDS011;15077;49.704;9.908;2023-05-02T08:24:13;6.85;;;5.40;;
27670;SDS011;15077;49.704;9.908;2023-05-02T08:26:39;9.55;;;7.88;;
27670;SDS011;15077;49.704;9.908;2023-05-02T08:29:05;11.00;;;8.80;;
27670;SDS011;15077;49.704;9.908;2023-05-02T08:31:31;7.30;;;6.18;;
27670;SDS011;15077;49.704;9.908;2023-05-02T08:33:57;10.80;;;8.73;;
27670;SDS011;15077;49.704;9.908;2023-05-02T08:36:23;7.75;;;5.85;;
27670;SDS011;15077;49.704;9.908;2023-05-02T08:38:49;9.10;;;5.85;;
27670;SDS011;15077;49.704;9.908;2023-05-02T08:41:20;9.68;;;7.13;;
27670;SDS011;15077;49.704;9.908;2023-05-02T08:43:46;11.13;;;7.95;;
27670;SDS011;15077;49.704;9.908;2023-05-02T08:46:13;7.10;;;6.25;;
27670;SDS011;15077;49.704;9.908;2023-05-02T08:48:41;7.32;;;5.93;;
27670;SDS011;15077;49.704;9.908;2023-05-02T08:51:13;8.15;;;6.28;;
27670;SDS011;15077;49.704;9.908;2023-05-02T08:53:41;7.22;;;5.18;;
27670;SDS011;15077;49.704;9.908;2023-05-02T08:56:08;7.35;;;5.18;;
27670;SDS011;15077;49.704;9.908;2023-05-02T08:58:35;7.18;;;5.93;;
27670;SDS011;15077;49.704;9.908;2023-05-02T09:01:08;6.05;;;4.82;;
27670;SDS011;15077;49.704;9.908;2023-05-02T09:03:43;6.80;;;5.47;;
27670;SDS011;15077;49.704;9.908;2023-05-02T09:06:17;9.15;;;7.47;;
27670;SDS011;15077;49.704;9.908;2023-05-02T09:08:46;7.70;;;6.25;;
27670;SDS011;15077;49.704;9.908;2023-05-02T09:11:15;5.30;;;4.80;;
27670;SDS011;15077;49.704;9.908;2023-05-02T09:13:48;5.57;;;5.05;;
27670;SDS011;15077;49.704;9.908;2023-05-02T09:16:18;5.72;;;4.97;;
27670;SDS011;15077;49.704;9.908;2023-05-02T09:18:53;8.25;;;5.97;;
27670;SDS011;15077;49.704;9.908;2023-05-02T09:21:21;5.57;;;4.70;;
27670;SDS011;15077;49.704;9.908;2023-05-02T09:23:59;6.10;;;4.82;;
27670;SDS011;15077;49.704;9.908;2023-05-02T09:26:27;8.20;;;6.10;;
27670;SDS011;15077;49.704;9.908;2023-05-02T09:28:56;8.05;;;6.50;;
27670;SDS011;15077;49.704;9.908;2023-05-02T09:31:25;6.47;;;5.15;;
27670;SDS011;15077;49.704;9.908;2023-05-02T09:34:10;6.90;;;5.20;;
27670;SDS011;15077;49.704;9.908;2023-05-02T09:36:44;6.32;;;5.50;;
27670;SDS011;15077;49.704;9.908;2023-05-02T09:39:15;7.00;;;4.72;;
27670;SDS011;15077;49.704;9.908;2023-05-02T09:41:47;4.17;;;3.77;;
27670;SDS011;15077;49.704;9.908;2023-05-02T09:44:14;5.28;;;4.75;;
27670;SDS011;15077;49.704;9.908;2023-05-02T09:49:13;6.88;;;6.03;;
27670;SDS011;15077;49.704;9.908;2023-05-02T09:51:42;6.38;;;5.35;;
27670;SDS011;15077;49.704;9.908;2023-05-02T09:54:12;5.35;;;4.75;;
27670;SDS011;15077;49.704;9.908;2023-05-02T09:56:57;4.63;;;4.05;;
27670;SDS011;15077;49.704;9.908;2023-05-02T09:59:23;4.80;;;3.55;;
27670;SDS011;15077;49.704;9.908;2023-05-02T10:01:56;5.45;;;4.43;;
27670;SDS011;15077;49.704;9.908;2023-05-02T10:04:24;7.13;;;6.35;;
27670;SDS011;15077;49.704;9.908;2023-05-02T10:06:52;5.90;;;4.55;;
27670;SDS011;15077;49.704;9.908;2023-05-02T10:09:20;5.38;;;4.22;;
27670;SDS011;15077;49.704;9.908;2023-05-02T10:11:48;7.90;;;6.05;;
27670;SDS011;15077;49.704;9.908;2023-05-02T10:14:18;5.47;;;4.57;;
27670;SDS011;15077;49.704;9.908;2023-05-02T10:19:28;7.68;;;5.93;;
27670;SDS011;15077;49.704;9.908;2023-05-02T10:22:09;6.47;;;5.63;;
27670;SDS011;15077;49.704;9.908;2023-05-02T10:24:37;6.80;;;5.25;;
27670;SDS011;15077;49.704;9.908;2023-05-02T10:27:04;5.80;;;5.13;;
27670;SDS011;15077;49.704;9.908;2023-05-02T10:29:31;7.70;;;5.57;;
27670;SDS011;15077;49.704;9.908;2023-05-02T10:31:58;6.38;;;5.78;;
27670;SDS011;15077;49.704;9.908;2023-05-02T10:34:28;6.15;;;5.00;;
27670;SDS011;15077;49.704;9.908;2023-05-02T10:36:57;6.18;;;5.57;;
27670;SDS011;15077;49.704;9.908;2023-05-02T10:39:25;7.38;;;6.20;;
27670;SDS011;15077;49.704;9.908;2023-05-02T10:41:53;6.47;;;5.18;;
27670;SDS011;15077;49.704;9.908;2023-05-02T10:44:36;5.70;;;4.55;;
27670;SDS011;15077;49.704;9.908;2023-05-02T10:47:20;4.80;;;4.30;;
27670;SDS011;15077;49.704;9.908;2023-05-02T10:49:48;3.45;;;3.00;;
27670;SDS011;15077;49.704;9.908;2023-05-02T10:52:36;10.05;;;6.75;;
27670;SDS011;15077;49.704;9.908;2023-05-02T11:00:32;6.78;;;4.82;;
27670;SDS011;15077;49.704;9.908;2023-05-02T11:02:59;5.10;;;4.57;;
27670;SDS011;15077;49.704;9.908;2023-05-02T11:05:26;5.07;;;4.25;;
27670;SDS011;15077;49.704;9.908;2023-05-02T11:10:40;4.50;;;4.10;;
27670;SDS011;15077;49.704;9.908;2023-05-02T11:13:05;5.47;;;4.30;;
27670;SDS011;15077;49.704;9.908;2023-05-02T11:18:01;6.10;;;4.20;;
27670;SDS011;15077;49.704;9.908;2023-05-02T11:20:31;6.15;;;4.35;;
27670;SDS011;15077;49.704;9.908;2023-05-02T11:25:46;4.53;;;3.70;;
27670;SDS011;15077;49.704;9.908;2023-05-02T11:31:01;6.20;;;4.93;;
27670;SDS011;15077;49.704;9.908;2023-05-02T11:33:29;5.28;;;4.78;;
27670;SDS011;15077;49.704;9.908;2023-05-02T11:35:54;5.72;;;4.07;;
27670;SDS011;15077;49.704;9.908;2023-05-02T11:38:23;5.05;;;4.03;;
27670;SDS011;15077;49.704;9.908;2023-05-02T11:40:58;5.88;;;4.18;;
27670;SDS011;15077;49.704;9.908;2023-05-02T11:43:27;4.60;;;3.83;;
27670;SDS011;15077;49.704;9.908;2023-05-02T11:45:54;4.90;;;2.40;;
27670;SDS011;15077;49.704;9.908;2023-05-02T11:48:22;4.43;;;3.00;;
27670;SDS011;15077;49.704;9.908;2023-05-02T11:50:52;5.18;;;3.60;;
27670;SDS011;15077;49.704;9.908;2023-05-02T11:53:21;3.88;;;3.10;;
27670;SDS011;15077;49.704;9.908;2023-05-02T11:55:57;5.05;;;4.00;;
27670;SDS011;15077;49.704;9.908;2023-05-02T11:58:32;4.47;;;3.33;;
27670;SDS011;15077;49.704;9.908;2023-05-02T12:00:58;4.55;;;3.10;;
27670;SDS011;15077;49.704;9.908;2023-05-02T12:03:39;5.50;;;4.47;;
27670;SDS011;15077;49.704;9.908;2023-05-02T12:06:15;5.15;;;3.95;;
27670;SDS011;15077;49.704;9.908;2023-05-02T12:08:44;4.85;;;4.28;;
27670;SDS011;15077;49.704;9.908;2023-05-02T12:11:14;4.88;;;4.35;;
27670;SDS011;15077;49.704;9.908;2023-05-02T12:13:47;4.13;;;3.70;;
27670;SDS011;15077;49.704;9.908;2023-05-02T12:16:14;4.20;;;3.63;;
27670;SDS011;15077;49.704;9.908;2023-05-02T12:18:41;4.53;;;3.65;;
27670;SDS011;15077;49.704;9.908;2023-05-02T12:21:07;4.30;;;3.75;;
27670;SDS011;15077;49.704;9.908;2023-05-02T12:23:33;3.95;;;2.72;;
27670;SDS011;15077;49.704;9.908;2023-05-02T12:26:09;4.10;;;3.08;;
27670;SDS011;15077;49.704;9.908;2023-05-02T12:28:54;4.32;;;3.20;;
27670;SDS011;15077;49.704;9.908;2023-05-02T12:31:22;3.78;;;2.85;;
27670;SDS011;15077;49.704;9.908;2023-05-02T12:33:48;4.28;;;3.03;;
27670;SDS011;15077;49.704;9.908;2023-05-02T12:36:16;2.97;;;2.28;;
27670;SDS011;15077;49.704;9.908;2023-05-02T12:38:52;3.10;;;2.40;;
27670;SDS011;15077;49.704;9.908;2023-05-02T12:41:36;6.07;;;3.13;;
27670;SDS011;15077;49.704;9.908;2023-05-02T12:44:07;3.88;;;3.45;;
27670;SDS011;15077;49.704;9.908;2023-05-02T12:46:33;3.03;;;2.33;;
27670;SDS011;15077;49.704;9.908;2023-05-02T12:49:00;4.13;;;3.03;;
27670;SDS011;15077;49.704;9.908;2023-05-02T12:51:36;8.15;;;2.92;;
27670;SDS011;15077;49.704;9.908;2023-05-02T12:54:03;3.75;;;2.78;;
27670;SDS011;15077;49.704;9.908;2023-05-02T12:56:30;4.18;;;2.72;;
27670;SDS011;15077;49.704;9.908;2023-05-02T12:59:07;2.65;;;2.00;;
27670;SDS011;15077;49.704;9.908;2023-05-02T13:04:15;3.38;;;2.30;;
27670;SDS011;15077;49.704;9.908;2023-05-02T13:06:41;2.30;;;1.92;;
27670;SDS011;15077;49.704;9.908;2023-05-02T13:09:07;3.92;;;3.28;;
27670;SDS011;15077;49.704;9.908;2023-05-02T13:11:32;3.15;;;2.30;;
27670;SDS011;15077;49.704;9.908;2023-05-02T13:13:58;3.85;;;2.75;;
27670;SDS011;15077;49.704;9.908;2023-05-02T13:16:26;3.22;;;2.40;;
27670;SDS011;15077;49.704;9.908;2023-05-02T13:18:54;3.75;;;2.20;;
27670;SDS011;15077;49.704;9.908;2023-05-02T13:21:19;3.75;;;2.00;;
27670;SDS011;15077;49.704;9.908;2023-05-02T13:23:48;3.35;;;2.55;;
27670;SDS011;15077;49.704;9.908;2023-05-02T13:26:15;4.18;;;3.10;;
27670;SDS011;15077;49.704;9.908;2023-05-02T13:28:41;4.00;;;2.85;;
27670;SDS011;15077;49.704;9.908;2023-05-02T13:31:07;3.80;;;3.00;;
27670;SDS011;15077;49.704;9.908;2023-05-02T13:33:32;3.70;;;3.15;;
27670;SDS011;15077;49.704;9.908;2023-05-02T13:35:58;3.80;;;3.38;;
27670;SDS011;15077;49.704;9.908;2023-05-02T13:38:24;2.85;;;2.20;;
27670;SDS011;15077;49.704;9.908;2023-05-02T13:40:50;4.85;;;2.90;;
27670;SDS011;15077;49.704;9.908;2023-05-02T13:43:18;5.07;;;2.92;;
27670;SDS011;15077;49.704;9.908;2023-05-02T13:45:43;3.65;;;2.33;;
27670;SDS011;15077;49.704;9.908;2023-05-02T13:48:11;2.75;;;1.98;;
27670;SDS011;15077;49.704;9.908;2023-05-02T13:50:37;2.25;;;1.92;;
27670;SDS011;15077;49.704;9.908;2023-05-02T13:53:03;3.40;;;2.47;;
27670;SDS011;15077;49.704;9.908;2023-05-02T13:55:28;2.70;;;2.03;;
27670;SDS011;15077;49.704;9.908;2023-05-02T13:57:54;2.25;;;1.83;;
27670;SDS011;15077;49.704;9.908;2023-05-02T14:00:20;2.03;;;1.73;;
27670;SDS011;15077;49.704;9.908;2023-05-02T14:02:46;2.63;;;1.95;;
27670;SDS011;15077;49.704;9.908;2023-05-02T14:05:12;3.00;;;1.55;;
27670;SDS011;15077;49.704;9.908;2023-05-02T14:07:39;2.38;;;1.35;;
27670;SDS011;15077;49.704;9.908;2023-05-02T14:10:04;2.63;;;1.83;;
27670;SDS011;15077;49.704;9.908;2023-05-02T14:12:31;2.05;;;1.33;;
27670;SDS011;15077;49.704;9.908;2023-05-02T14:14:57;2.75;;;1.60;;
27670;SDS011;15077;49.704;9.908;2023-05-02T14:17:23;2.30;;;1.23;;
27670;SDS011;15077;49.704;9.908;2023-05-02T14:19:51;2.50;;;1.70;;
27670;SDS011;15077;49.704;9.908;2023-05-02T14:22:17;2.03;;;1.75;;
27670;SDS011;15077;49.704;9.908;2023-05-02T14:24:43;3.03;;;2.00;;
27670;SDS011;15077;49.704;9.908;2023-05-02T14:27:08;3.45;;;1.70;;
27670;SDS011;15077;49.704;9.908;2023-05-02T14:29:42;1.75;;;1.40;;
27670;SDS011;15077;49.704;9.908;2023-05-02T14:32:12;1.85;;;1.30;;
27670;SDS011;15077;49.704;9.908;2023-05-02T14:34:38;1.48;;;1.25;;
27670;SDS011;15077;49.704;9.908;2023-05-02T14:37:04;1.77;;;1.35;;
27670;SDS011;15077;49.704;9.908;2023-05-02T14:39:32;1.88;;;1.25;;
27670;SDS011;15077;49.704;9.908;2023-05-02T14:41:59;1.33;;;1.17;;
27670;SDS011;15077;49.704;9.908;2023-05-02T14:44:27;1.80;;;1.23;;
27670;SDS011;15077;49.704;9.908;2023-05-02T14:46:53;1.70;;;1.20;;
27670;SDS011;15077;49.704;9.908;2023-05-02T14:49:21;1.60;;;1.20;;
27670;SDS011;15077;49.704;9.908;2023-05-02T14:51:49;2.70;;;1.70;;
27670;SDS011;15077;49.704;9.908;2023-05-02T14:54:15;3.05;;;1.58;;
27670;SDS011;15077;49.704;9.908;2023-05-02T14:56:41;2.30;;;1.70;;
27670;SDS011;15077;49.704;9.908;2023-05-02T14:59:07;2.08;;;1.60;;
27670;SDS011;15077;49.704;9.908;2023-05-02T15:01:33;3.40;;;1.83;;
27670;SDS011;15077;49.704;9.908;2023-05-02T15:03:59;2.35;;;1.63;;
27670;SDS011;15077;49.704;9.908;2023-05-02T15:06:27;3.28;;;1.83;;
27670;SDS011;15077;49.704;9.908;2023-05-02T15:08:57;2.17;;;1.70;;
27670;SDS011;15077;49.704;9.908;2023-05-02T15:11:23;1.83;;;1.40;;
27670;SDS011;15077;49.704;9.908;2023-05-02T15:13:49;1.77;;;1.35;;
27670;SDS011;15077;49.704;9.908;2023-05-02T15:16:15;1.60;;;1.42;;
27670;SDS011;15077;49.704;9.908;2023-05-02T15:18:41;4.15;;;1.67;;
27670;SDS011;15077;49.704;9.908;2023-05-02T15:21:06;2.40;;;1.50;;
27670;SDS011;15077;49.704;9.908;2023-05-02T15:23:32;2.35;;;1.40;;
27670;SDS011;15077;49.704;9.908;2023-05-02T15:25:58;2.35;;;1.38;;
27670;SDS011;15077;49.704;9.908;2023-05-02T15:28:24;2.05;;;1.48;;
27670;SDS011;15077;49.704;9.908;2023-05-02T15:30:50;2.33;;;1.40;;
27670;SDS011;15077;49.704;9.908;2023-05-02T15:33:16;2.33;;;1.20;;
27670;SDS011;15077;49.704;9.908;2023-05-02T15:35:46;1.90;;;1.30;;
27670;SDS011;15077;49.704;9.908;2023-05-02T15:38:24;4.97;;;1.77;;
27670;SDS011;15077;49.704;9.908;2023-05-02T15:40:54;2.85;;;1.15;;